Paynes Point, Illinois
Current Conditions -  °F | °C
As of 10:15 AM on Wednesday 26 Nov 2014 (Local Time) from KRPJ Reporting Station
Haze Haze  
Wind Chill: -9°   Ceiling: 800
Heat Index: -4°   Visibility: 5mi
Dew Point: -5°   Wind: 7mph
Humidity: 94%   Direction: 110°ESE
Pressure: 30.14"   Gusts: NA
Location:  41.9937°N, 89.1961°W
Report Text: KRPJ 261615Z AUTO 11006KT 5SM BR BKN008 OVC017 M04/M05 A3014 RMK AO2 T10441052
Loading
Personal Weather Stations






























Interactive Weather Map New forecast layout! Learn more

10-Day Weather Forecast

Advertisements
Track Severe Weather on mobile